createdAt,value
2023-01-29T00:03:17.438Z,64.68
2023-01-29T00:08:20.104Z,63.55
2023-01-29T00:13:22.939Z,64.15
2023-01-29T00:18:25.690Z,64.71
2023-01-29T00:23:28.194Z,65.45
2023-01-29T00:28:30.559Z,65.49
2023-01-29T00:33:32.671Z,64.78
2023-01-29T00:38:35.649Z,65.02
2023-01-29T00:43:56.145Z,65.58
2023-01-29T00:49:00.635Z,65.77
2023-01-29T00:54:04.569Z,65.90
2023-01-29T00:59:07.014Z,65.54
2023-01-29T01:04:11.951Z,66.41
2023-01-29T01:09:32.916Z,67.22
2023-01-29T01:14:36.600Z,66.34
2023-01-29T01:19:38.856Z,66.61
2023-01-29T01:24:41.057Z,66.80
2023-01-29T01:29:43.379Z,67.28
2023-01-29T01:34:48.623Z,67.11
2023-01-29T01:39:50.926Z,67.32
2023-01-29T01:45:05.656Z,67.87
2023-01-29T01:50:12.024Z,68.19
2023-01-29T01:55:16.845Z,68.15
2023-01-29T02:00:20.689Z,68.43
2023-01-29T02:05:41.527Z,68.83
2023-01-29T02:10:46.631Z,69.19
2023-01-29T02:15:49.036Z,69.43
2023-01-29T02:21:15.928Z,68.93
2023-01-29T02:26:30.480Z,68.82
2023-01-29T02:31:41.948Z,68.72
2023-01-29T02:37:06.971Z,69.20
2023-01-29T02:42:38.904Z,69.57
2023-01-29T02:47:41.046Z,69.71
2023-01-29T02:52:57.013Z,70.12
2023-01-29T02:58:09.215Z,70.10
2023-01-29T03:03:31.106Z,69.89
2023-01-29T03:08:45.791Z,70.15
2023-01-29T03:14:10.767Z,70.80
2023-01-29T03:19:19.057Z,70.72
2023-01-29T03:25:11.554Z,70.62
2023-01-29T03:30:36.026Z,71.08
2023-01-29T03:36:02.595Z,71.46
2023-01-29T03:41:20.025Z,71.61
2023-01-29T03:46:30.399Z,71.78
2023-01-29T03:52:02.916Z,71.53
2023-01-29T03:57:16.156Z,71.70
2023-01-29T04:02:30.227Z,71.91
2023-01-29T04:07:36.945Z,72.40
2023-01-29T04:12:45.050Z,72.57
2023-01-29T04:17:54.201Z,72.20
2023-01-29T04:23:08.040Z,72.76
2023-01-29T04:28:22.151Z,73.10
2023-01-29T04:33:30.179Z,73.13
2023-01-29T04:38:58.549Z,73.17
2023-01-29T04:44:10.038Z,73.55
2023-01-29T04:49:41.966Z,73.78
2023-01-29T04:55:06.573Z,73.87
2023-01-29T05:00:12.653Z,73.55
2023-01-29T05:05:16.810Z,74.25
2023-01-29T05:10:21.669Z,73.95
2023-01-29T05:15:27.570Z,73.37
2023-01-29T05:20:33.475Z,73.48
2023-01-29T05:25:35.692Z,73.72
2023-01-29T05:30:39.605Z,74.55
2023-01-29T05:35:42.100Z,74.88
2023-01-29T05:40:44.289Z,74.54
2023-01-29T05:45:59.924Z,74.36
2023-01-29T05:51:03.517Z,74.62
2023-01-29T05:56:06.031Z,75.11
2023-01-29T06:01:19.993Z,75.58
2023-01-29T06:06:22.422Z,75.59
2023-01-29T06:11:25.053Z,75.91
2023-01-29T06:16:27.427Z,76.09
2023-01-29T06:21:29.856Z,76.33
2023-01-29T06:26:32.335Z,76.42
2023-01-29T06:31:39.314Z,76.07
2023-01-29T06:36:42.015Z,76.02
2023-01-29T06:41:45.676Z,76.32
2023-01-29T06:46:47.741Z,76.22
2023-01-29T06:51:49.773Z,76.31
2023-01-29T06:56:52.935Z,76.60
2023-01-29T07:01:55.175Z,76.95
2023-01-29T07:06:57.308Z,76.67
2023-01-29T07:11:59.409Z,76.29
2023-01-29T07:17:01.486Z,76.83
2023-01-29T07:22:04.129Z,76.64
2023-01-29T07:27:06.222Z,77.19
2023-01-29T07:32:08.555Z,77.50
2023-01-29T07:37:11.675Z,77.17
2023-01-29T07:42:13.926Z,77.41
2023-01-29T07:47:17.272Z,77.22
2023-01-29T07:52:21.910Z,77.01
2023-01-29T07:57:25.088Z,76.77
2023-01-29T08:02:27.144Z,77.18
2023-01-29T08:07:29.300Z,77.04
2023-01-29T08:12:31.430Z,77.07
2023-01-29T08:17:33.575Z,77.39
2023-01-29T08:22:36.322Z,77.10
2023-01-29T08:27:38.573Z,76.87
2023-01-29T08:32:40.753Z,76.76
2023-01-29T08:37:43.158Z,76.82
2023-01-29T08:42:45.274Z,76.71
2023-01-29T08:47:48.391Z,76.87
2023-01-29T08:52:50.444Z,76.98
2023-01-29T08:57:57.739Z,76.73
2023-01-29T09:03:01.120Z,76.99
2023-01-29T09:08:03.675Z,76.57
2023-01-29T09:13:06.360Z,77.05
2023-01-29T09:18:08.615Z,75.88
2023-01-29T09:23:11.349Z,74.46
2023-01-29T09:28:13.662Z,73.44
2023-01-29T09:33:16.173Z,71.19
2023-01-29T09:38:18.328Z,64.99
2023-01-29T09:43:25.069Z,60.05
2023-01-29T09:48:31.225Z,58.25
2023-01-29T09:53:44.422Z,55.52
2023-01-29T09:58:46.763Z,53.76
2023-01-29T10:04:08.231Z,51.31
2023-01-29T10:09:23.254Z,50.52
2023-01-29T10:14:57.036Z,49.62
2023-01-29T10:20:34.925Z,47.96
2023-01-29T10:25:40.612Z,46.65
2023-01-29T10:30:48.359Z,49.50
2023-01-29T10:35:55.794Z,43.03
2023-01-29T10:41:12.922Z,41.17
2023-01-29T10:46:36.960Z,41.53
2023-01-29T10:52:11.286Z,42.12
2023-01-29T10:57:32.046Z,42.46
2023-01-29T11:02:34.201Z,45.23
2023-01-29T11:07:36.711Z,48.22
2023-01-29T11:12:39.333Z,47.71
2023-01-29T11:18:01.813Z,47.97
2023-01-29T11:23:05.684Z,59.26
2023-01-29T11:28:11.029Z,58.33
2023-01-29T11:33:20.158Z,55.16
2023-01-29T11:38:25.474Z,53.38
2023-01-29T11:43:27.522Z,57.09
2023-01-29T11:48:51.902Z,50.77
2023-01-29T11:53:58.305Z,55.79
2023-01-29T11:59:02.458Z,54.46
2023-01-29T12:04:16.818Z,57.75
2023-01-29T12:09:25.329Z,52.34
2023-01-29T12:14:36.222Z,52.03
2023-01-29T12:19:43.996Z,49.53
2023-01-29T12:24:58.318Z,52.18
2023-01-29T12:30:03.027Z,58.22
2023-01-29T12:35:18.589Z,54.28
2023-01-29T12:40:24.530Z,52.68
2023-01-29T12:45:27.027Z,52.50
2023-01-29T12:50:33.090Z,54.08
2023-01-29T12:55:40.846Z,54.56
2023-01-29T13:00:47.917Z,57.84
2023-01-29T13:06:00.629Z,50.57
2023-01-29T13:11:07.379Z,60.12
2023-01-29T13:16:13.228Z,59.05
2023-01-29T13:21:21.808Z,52.13
2023-01-29T13:26:24.666Z,55.00
2023-01-29T13:31:37.955Z,58.78
2023-01-29T13:36:48.478Z,52.82
2023-01-29T13:41:51.643Z,53.22
2023-01-29T13:47:10.477Z,53.04
2023-01-29T13:52:32.229Z,53.08
2023-01-29T13:57:48.286Z,49.77
2023-01-29T14:02:56.538Z,52.57
2023-01-29T14:08:14.203Z,51.01
2023-01-29T14:13:18.980Z,55.31
2023-01-29T14:18:21.981Z,55.42
2023-01-29T14:23:42.908Z,53.34
2023-01-29T14:32:42.597Z,56.26
2023-01-29T14:34:43.691Z,54.08
2023-01-29T14:39:54.134Z,55.20
2023-01-29T14:44:58.203Z,53.72
2023-01-29T14:50:02.179Z,52.59
2023-01-29T14:55:08.371Z,54.51
2023-01-29T15:00:36.529Z,49.95
2023-01-29T15:05:39.602Z,50.08
2023-01-29T15:11:15.227Z,49.45
2023-01-29T15:16:24.579Z,49.43
2023-01-29T15:21:26.724Z,52.66
2023-01-29T15:26:28.993Z,56.16
2023-01-29T15:31:31.835Z,52.57
2023-01-29T15:36:34.348Z,49.95
2023-01-29T15:41:38.394Z,51.21
2023-01-29T15:46:42.257Z,51.81
2023-01-29T15:51:44.548Z,49.96
2023-01-29T15:56:50.151Z,50.36
2023-01-29T16:01:54.556Z,53.59
2023-01-29T16:06:57.122Z,52.53
2023-01-29T16:11:59.546Z,49.74
2023-01-29T16:17:24.998Z,49.22
2023-01-29T16:22:32.496Z,49.81
2023-01-29T16:27:35.325Z,49.92
2023-01-29T16:32:37.471Z,49.96
2023-01-29T16:37:40.162Z,50.42
2023-01-29T16:42:42.931Z,50.87
2023-01-29T16:47:44.940Z,50.98
2023-01-29T16:52:58.576Z,51.23
2023-01-29T16:58:04.345Z,50.94
2023-01-29T17:03:06.865Z,50.54
2023-01-29T17:08:21.318Z,51.05
2023-01-29T17:13:35.127Z,51.27
2023-01-29T17:18:46.154Z,52.35
2023-01-29T17:23:48.372Z,52.44
2023-01-29T17:28:53.409Z,52.18
2023-01-29T17:33:55.911Z,52.95
2023-01-29T17:38:58.393Z,53.02
2023-01-29T17:44:00.964Z,52.99
2023-01-29T17:49:04.745Z,53.82
2023-01-29T17:54:07.191Z,54.20
2023-01-29T17:59:14.602Z,54.77
2023-01-29T18:04:17.675Z,53.75
2023-01-29T18:09:21.071Z,53.25
2023-01-29T18:14:23.780Z,53.53
2023-01-29T18:19:31.251Z,53.55
2023-01-29T18:24:34.194Z,54.27
2023-01-29T18:29:36.375Z,53.77
2023-01-29T18:34:38.614Z,54.33
2023-01-29T18:39:41.074Z,54.42
2023-01-29T18:44:43.341Z,56.07
2023-01-29T18:49:45.762Z,56.37
2023-01-29T18:54:47.790Z,55.87
2023-01-29T18:59:50.157Z,55.95
2023-01-29T19:04:52.540Z,56.06
2023-01-29T19:09:54.663Z,56.12
2023-01-29T19:14:56.873Z,56.61
2023-01-29T19:20:02.194Z,57.60
2023-01-29T19:25:05.422Z,57.46
2023-01-29T19:30:08.618Z,57.70
2023-01-29T19:35:11.187Z,58.56
2023-01-29T19:40:13.380Z,58.54
2023-01-29T19:45:15.730Z,58.81
2023-01-29T19:50:18.003Z,58.78
2023-01-29T19:55:21.172Z,59.05
2023-01-29T20:00:25.910Z,59.67
2023-01-29T20:05:28.096Z,59.91
2023-01-29T20:10:30.126Z,60.54
2023-01-29T20:15:32.391Z,60.90
2023-01-29T20:20:34.324Z,60.59
2023-01-29T20:25:37.775Z,61.55
2023-01-29T20:30:40.782Z,62.51
2023-01-29T20:35:43.093Z,61.95
2023-01-29T20:40:45.166Z,62.35
2023-01-29T20:45:47.232Z,62.87
2023-01-29T20:50:49.632Z,63.32
2023-01-29T20:55:53.519Z,63.62
2023-01-29T21:00:55.856Z,63.64
2023-01-29T21:05:59.289Z,63.97
2023-01-29T21:11:02.183Z,64.48
2023-01-29T21:16:05.121Z,64.74
2023-01-29T21:21:07.805Z,65.20
2023-01-29T21:26:10.216Z,65.29
2023-01-29T21:31:14.823Z,65.19
2023-01-29T21:36:17.206Z,66.84
2023-01-29T21:41:19.577Z,65.59
2023-01-29T21:46:21.885Z,65.53
2023-01-29T21:51:24.562Z,65.61
2023-01-29T21:56:27.668Z,65.67
2023-01-29T22:01:38.114Z,65.68
2023-01-29T22:06:41.558Z,66.10
2023-01-29T22:11:43.654Z,66.09
2023-01-29T22:16:46.341Z,65.75
2023-01-29T22:21:48.434Z,66.20
2023-01-29T22:26:50.515Z,66.35
2023-01-29T22:31:53.937Z,66.15
2023-01-29T22:36:55.916Z,66.38
2023-01-29T22:41:58.107Z,66.50
2023-01-29T22:47:00.997Z,66.68
2023-01-29T22:52:12.260Z,66.65
2023-01-29T22:57:15.403Z,66.92
2023-01-29T23:02:17.780Z,67.19
2023-01-29T23:07:21.126Z,67.24
2023-01-29T23:12:23.341Z,67.64
2023-01-29T23:17:25.517Z,68.12
2023-01-29T23:22:27.625Z,67.86
2023-01-29T23:27:29.903Z,68.22
2023-01-29T23:32:32.024Z,68.45
2023-01-29T23:37:34.658Z,68.59
2023-01-29T23:42:36.797Z,68.85
2023-01-29T23:47:39.096Z,69.07
2023-01-29T23:52:41.157Z,69.19
2023-01-29T23:57:43.150Z,69.39
